Chippewa Valley Regional Airport Eau Claire US
ICAO: KEAU
IATA: EAU
Category: Medium
Scheduled Services: Yes

Elevation: 913 ft
TransAlt. 18000 ft.

Airport Communications:
MINNEAPOLIS APP/DEP:125.3
ASOS:119.675
GREEN BAY RDO:122.65
CTAF/UNICOM:123

KEAU Zoom In..

If Map Doesn't Load, Click Here

Runways:

(A) RW 04 length 8101 ft width 150 ft
---- / hdg 44

(B) RW 14 length 5000 ft width 100 ft
---- / hdg 138

(C) RW 22 length 8101 ft width 150 ft
ILS 109.50 / hdg 224

(D) RW 32 length 5000 ft width 100 ft
---- / hdg 318

Location; KEAU
Day. 26 / Time. 09.56 Zulu
* Altimeter: 29.98
* Temperature: 06° c. 42.8°f.
* Wind from: 260° Speed 05 kn.
Dewpoint: 06° c.
Visibility: 8 Statute Miles.
Clouds: Broken 1000 ft.

KEAU 260956Z AUTO 26005KT 8SM BKN100 06/06 A2998 RMK AO2 SLP159 T00610056


Wind From 260°
Speed 05 kn.

 
 
jpsmedia.com for Web Design worldairports.se 2018   terms of use